Time;durP1;ratioP1;P1;durP2;ratioP2;P2;SDS_P1;SDS_P2;PMS_P1;PMS_P2;Temp;Humidity;BMP_temperature;BMP_pressure;BME280_temperature;BME280_humidity;BME280_pressure;Samples;Min_cycle;Max_cycle;Signal;HPM_P1;HPM_P2
2023/01/09 00:00:12;;;;;;;4.32;3.60;;;7.40;92.70;;;;;;5066698;28;20040;-76
2023/01/09 00:02:39;;;;;;;6.38;3.58;;;7.50;92.70;;;;;;5055761;28;20051;-76
2023/01/09 00:05:06;;;;;;;5.78;3.30;;;7.50;92.70;;;;;;5046079;28;20032;-77
2023/01/09 00:07:31;;;;;;;4.45;3.33;;;7.50;92.70;;;;;;5035059;28;20040;-76
2023/01/09 00:09:57;;;;;;;5.72;3.60;;;7.50;92.70;;;;;;5068787;28;20646;-76
2023/01/09 00:12:22;;;;;;;5.45;3.45;;;7.50;92.70;;;;;;5064675;28;20573;-77
2023/01/09 00:14:48;;;;;;;5.50;3.35;;;7.50;92.70;;;;;;5055123;28;20039;-77
2023/01/09 00:17:13;;;;;;;5.72;3.28;;;7.50;92.70;;;;;;5069962;28;20714;-77
2023/01/09 00:19:39;;;;;;;3.42;2.80;;;7.50;92.70;;;;;;5053116;28;20038;-77
2023/01/09 00:22:05;;;;;;;4.18;3.42;;;7.50;92.70;;;;;;5040051;28;20032;-77
2023/01/09 00:24:31;;;;;;;5.25;3.45;;;7.50;92.70;;;;;;5070983;28;20044;-75
2023/01/09 00:26:56;;;;;;;4.43;3.47;;;7.50;92.70;;;;;;5054933;28;20119;-77
2023/01/09 00:29:22;;;;;;;4.32;3.58;;;7.50;92.70;;;;;;5070348;28;20031;-77
2023/01/09 00:31:47;;;;;;;3.08;2.70;;;7.50;92.70;;;;;;5041087;28;20112;-76
2023/01/09 00:34:13;;;;;;;4.43;3.17;;;7.50;92.70;;;;;;5046523;28;20512;-76
2023/01/09 00:36:38;;;;;;;4.53;3.63;;;7.50;92.70;;;;;;5056682;28;20501;-77
2023/01/09 00:39:04;;;;;;;5.22;3.55;;;7.60;92.80;;;;;;5067457;28;20122;-76
2023/01/09 00:41:39;;;;;;;6.45;3.47;;;7.50;92.70;;;;;;5068878;27;20126;-76
2023/01/09 00:44:13;;;;;;;3.92;3.05;;;7.50;92.80;;;;;;5058059;28;20040;-77
2023/01/09 00:46:42;;;;;;;3.80;3.30;;;7.60;93.10;;;;;;5054453;27;20028;-76
2023/01/09 00:49:07;;;;;;;3.53;2.80;;;7.50;92.70;;;;;;5068536;28;20035;-77
2023/01/09 00:51:33;;;;;;;3.70;2.90;;;7.60;92.70;;;;;;5055632;28;20046;-78
2023/01/09 00:53:58;;;;;;;4.63;2.92;;;7.60;92.70;;;;;;5064205;28;20028;-76
2023/01/09 00:56:24;;;;;;;4.97;3.40;;;7.60;92.70;;;;;;5073112;28;20390;-76
2023/01/09 00:58:50;;;;;;;4.80;3.08;;;7.60;92.70;;;;;;5055735;28;20040;-77
2023/01/09 01:01:16;;;;;;;3.42;2.92;;;7.60;92.80;;;;;;5060301;28;20028;-77
2023/01/09 01:03:41;;;;;;;3.97;3.35;;;7.50;92.80;;;;;;5070832;28;20051;-77
2023/01/09 01:08:51;;;;;;;3.85;2.80;;;7.60;92.80;;;;;;5073534;28;20551;-77
2023/01/09 01:11:16;;;;;;;3.15;2.80;;;7.60;92.80;;;;;;5056639;28;20024;-76
2023/01/09 01:13:42;;;;;;;3.40;2.90;;;7.60;92.80;;;;;;5054350;28;20032;-77
2023/01/09 01:16:10;;;;;;;5.00;2.33;;;7.60;92.80;;;;;;5044303;28;20044;-77
2023/01/09 01:18:36;;;;;;;3.22;2.65;;;7.60;92.80;;;;;;5070782;28;20032;-77
2023/01/09 01:21:09;;;;;;;3.03;2.10;;;7.60;92.80;;;;;;5073532;28;20035;-76
2023/01/09 01:23:34;;;;;;;2.95;2.40;;;7.60;92.90;;;;;;5040048;28;20035;-76
2023/01/09 01:26:04;;;;;;;3.63;2.30;;;7.60;92.90;;;;;;5070948;28;20039;-77
2023/01/09 01:28:30;;;;;;;2.65;2.25;;;7.60;92.90;;;;;;5057022;28;20028;-76
2023/01/09 01:30:55;;;;;;;2.40;2.20;;;7.60;92.90;;;;;;5069234;28;20390;-77
2023/01/09 01:33:21;;;;;;;3.03;2.05;;;7.70;93.00;;;;;;5069028;28;20043;-76
2023/01/09 01:35:46;;;;;;;3.20;2.17;;;7.70;93.00;;;;;;5055199;28;20398;-76
2023/01/09 01:38:12;;;;;;;3.78;1.95;;;7.70;93.00;;;;;;5069546;28;20028;-77
2023/01/09 01:40:39;;;;;;;3.58;2.40;;;7.70;93.00;;;;;;5085545;28;20047;-76
2023/01/09 01:43:04;;;;;;;2.70;2.17;;;7.70;93.00;;;;;;5058479;28;20035;-76
2023/01/09 01:45:32;;;;;;;1.88;1.73;;;7.70;93.00;;;;;;5069012;28;20051;-76
2023/01/09 01:48:08;;;;;;;2.55;2.03;;;7.80;93.00;;;;;;5044541;28;20093;-77
2023/01/09 01:50:49;;;;;;;3.65;2.60;;;7.80;93.10;;;;;;5038416;28;20050;-77
2023/01/09 01:53:31;;;;;;;2.80;1.90;;;7.80;93.00;;;;;;5068625;28;20056;-78
2023/01/09 01:56:02;;;;;;;2.13;1.55;;;7.80;93.10;;;;;;5054208;27;20122;-77
2023/01/09 01:58:28;;;;;;;;;;;7.80;93.00;;;;;;5092118;27;20042;-77
2023/01/09 02:00:53;;;;;;;2.63;1.83;;;7.80;93.00;;;;;;5085031;27;20314;-76
2023/01/09 02:03:22;;;;;;;4.13;2.03;;;7.80;92.90;;;;;;5070240;28;20062;-76
2023/01/09 02:05:47;;;;;;;2.78;1.80;;;7.90;93.00;;;;;;5040537;28;20039;-76
2023/01/09 02:08:13;;;;;;;2.70;2.08;;;7.90;93.00;;;;;;5066088;28;20414;-75
2023/01/09 02:10:38;;;;;;;1.80;1.70;;;7.90;93.00;;;;;;5052015;28;20554;-77
2023/01/09 02:13:05;;;;;;;2.42;2.00;;;7.90;93.00;;;;;;5071426;28;20043;-76
2023/01/09 02:15:45;;;;;;;3.13;1.55;;;7.90;93.00;;;;;;5063085;28;20039;-77
2023/01/09 02:18:30;;;;;;;2.80;1.75;;;8.00;93.10;;;;;;5071781;28;20619;-77
2023/01/09 02:21:21;;;;;;;2.17;1.63;;;7.90;93.10;;;;;;5059787;28;20052;-77
2023/01/09 02:24:00;;;;;;;2.22;1.90;;;8.00;93.10;;;;;;5077770;27;20153;-76
2023/01/09 02:26:29;;;;;;;2.35;1.63;;;8.00;93.00;;;;;;5042251;28;20060;-76
2023/01/09 02:29:18;;;;;;;1.75;1.52;;;8.00;93.00;;;;;;5085557;28;20036;-76
2023/01/09 02:31:58;;;;;;;2.65;1.63;;;8.00;93.10;;;;;;5085679;28;20123;-76
2023/01/09 02:34:34;;;;;;;2.75;1.60;;;8.00;93.00;;;;;;5042156;28;20113;-76
2023/01/09 02:37:11;;;;;;;1.75;1.33;;;8.00;93.00;;;;;;5069020;28;20042;-77
2023/01/09 02:39:49;;;;;;;2.10;1.50;;;8.00;93.00;;;;;;5053025;28;20614;-77
2023/01/09 02:42:24;;;;;;;3.72;1.35;;;8.00;93.00;;;;;;5075680;28;20123;-76
2023/01/09 02:44:50;;;;;;;1.17;1.08;;;8.00;93.00;;;;;;5051946;28;20040;-77
2023/01/09 02:47:15;;;;;;;1.92;1.30;;;8.00;93.00;;;;;;5071422;28;20054;-76
2023/01/09 02:49:49;;;;;;;1.50;1.17;;;8.00;93.00;;;;;;5070295;28;20105;-76
2023/01/09 02:52:46;;;;;;;1.45;1.35;;;8.00;93.00;;;;;;5068504;28;20040;-76
2023/01/09 02:55:33;;;;;;;1.52;1.30;;;8.00;93.00;;;;;;5069465;28;20058;-76
2023/01/09 02:58:05;;;;;;;2.30;1.30;;;8.10;93.00;;;;;;5072651;27;20032;-77
2023/01/09 03:00:35;;;;;;;1.40;1.30;;;8.00;93.10;;;;;;5086588;27;20039;-77
2023/01/09 03:03:38;;;;;;;1.58;1.30;;;8.10;93.00;;;;;;5065317;28;20039;-76
2023/01/09 03:06:12;;;;;;;1.40;1.30;;;8.10;93.00;;;;;;5071963;28;20036;-76
2023/01/09 03:08:40;;;;;;;1.83;1.33;;;8.10;93.00;;;;;;5067222;28;20047;-75
2023/01/09 03:11:06;;;;;;;1.85;1.38;;;8.10;93.00;;;;;;5068225;28;20112;-76
2023/01/09 03:13:44;;;;;;;2.33;1.33;;;8.10;93.00;;;;;;5067844;28;20032;-76
2023/01/09 03:16:11;;;;;;;1.92;1.17;;;8.10;93.00;;;;;;5052580;28;20035;-76
2023/01/09 03:18:37;;;;;;;1.85;1.20;;;8.10;93.00;;;;;;5065485;28;20039;-76
2023/01/09 03:21:03;;;;;;;2.45;1.30;;;8.10;93.00;;;;;;5067230;28;20607;-76
2023/01/09 03:23:45;;;;;;;1.33;0.93;;;8.10;93.00;;;;;;5068656;28;20036;-76
2023/01/09 03:26:10;;;;;;;1.45;1.13;;;8.10;93.00;;;;;;5071356;28;20039;-77
2023/01/09 03:28:36;;;;;;;1.95;0.82;;;8.10;93.00;;;;;;5067608;28;20490;-77
2023/01/09 03:31:01;;;;;;;1.48;1.30;;;8.20;93.10;;;;;;5042267;28;20043;-76
2023/01/09 03:33:27;;;;;;;1.60;1.50;;;8.10;93.00;;;;;;5087045;28;20040;-76
2023/01/09 03:35:53;;;;;;;1.60;1.23;;;8.20;93.00;;;;;;5069708;28;20040;-76
2023/01/09 03:38:18;;;;;;;1.13;1.00;;;8.20;93.00;;;;;;5052331;28;20040;-76
2023/01/09 03:40:44;;;;;;;1.30;1.20;;;8.20;93.10;;;;;;5064496;28;20032;-76
2023/01/09 03:43:09;;;;;;;1.15;1.02;;;8.20;93.10;;;;;;5050627;28;20036;-76
2023/01/09 03:45:35;;;;;;;2.28;0.82;;;8.10;93.00;;;;;;5069415;28;20044;-76
2023/01/09 03:48:01;;;;;;;0.80;0.80;;;8.20;93.10;;;;;;5070417;28;20032;-77
2023/01/09 03:50:26;;;;;;;1.23;1.10;;;8.10;93.10;;;;;;5056481;28;20457;-76
2023/01/09 03:52:52;;;;;;;1.85;1.45;;;8.20;93.10;;;;;;5053198;28;20046;-76
2023/01/09 03:55:17;;;;;;;1.70;1.10;;;8.20;93.10;;;;;;5057573;28;20039;-76
2023/01/09 03:57:43;;;;;;;2.75;1.20;;;8.20;93.10;;;;;;5089943;27;20031;-77
2023/01/09 04:00:09;;;;;;;0.60;0.55;;;8.20;93.50;;;;;;5052182;28;20028;-76
2023/01/09 04:02:34;;;;;;;0.88;0.85;;;8.20;93.10;;;;;;5067151;28;20044;-76
2023/01/09 04:05:00;;;;;;;1.67;0.90;;;8.20;93.10;;;;;;5036668;28;20032;-76
2023/01/09 04:07:25;;;;;;;0.77;0.77;;;8.20;93.10;;;;;;5085084;27;20031;-77
2023/01/09 04:09:51;;;;;;;0.95;0.88;;;8.20;93.10;;;;;;5054314;28;20469;-77
2023/01/09 04:12:16;;;;;;;0.70;0.70;;;8.20;93.10;;;;;;5072391;28;20040;-77
2023/01/09 04:14:42;;;;;;;0.50;0.50;;;8.20;93.10;;;;;;5054525;28;20123;-76
2023/01/09 04:17:07;;;;;;;0.60;0.50;;;8.20;93.10;;;;;;5048809;28;20080;-76
2023/01/09 04:19:33;;;;;;;0.68;0.68;;;8.30;93.10;;;;;;5053566;28;20131;-76
2023/01/09 04:21:58;;;;;;;0.60;0.60;;;8.30;93.10;;;;;;5069066;28;20072;-77
2023/01/09 04:24:24;;;;;;;0.65;0.65;;;8.30;93.10;;;;;;5051030;28;20032;-75
2023/01/09 04:26:49;;;;;;;0.57;0.57;;;8.20;93.10;;;;;;5053170;28;20464;-76
2023/01/09 04:29:15;;;;;;;0.47;0.47;;;8.20;93.10;;;;;;5051688;28;20775;-76
2023/01/09 04:31:40;;;;;;;0.40;0.40;;;8.30;93.20;;;;;;5051811;28;20778;-76
2023/01/09 04:34:06;;;;;;;0.40;0.40;;;8.20;93.10;;;;;;5036438;28;20636;-76
2023/01/09 04:36:34;;;;;;;0.47;0.43;;;8.20;93.10;;;;;;5087679;28;20040;-76
2023/01/09 04:38:59;;;;;;;2.13;0.50;;;8.20;93.10;;;;;;5040196;28;20035;-76
2023/01/09 04:44:09;;;;;;;0.20;0.20;;;8.20;93.10;;;;;;5071202;28;20097;-76
2023/01/09 04:46:35;;;;;;;1.40;0.50;;;8.20;93.10;;;;;;5071248;28;20039;-76
2023/01/09 04:49:00;;;;;;;0.40;0.40;;;8.20;93.10;;;;;;5070598;28;20033;-77
2023/01/09 04:51:26;;;;;;;0.38;0.30;;;8.20;93.10;;;;;;5087668;28;20044;-77
2023/01/09 04:53:51;;;;;;;1.15;0.50;;;8.20;93.10;;;;;;5073291;28;20024;-76
2023/01/09 04:56:17;;;;;;;1.20;1.10;;;8.20;93.10;;;;;;5091147;28;20031;-75
2023/01/09 04:58:42;;;;;;;1.35;0.30;;;8.20;93.10;;;;;;5042069;28;20664;-77
2023/01/09 05:01:08;;;;;;;0.43;0.30;;;8.20;93.10;;;;;;5070368;28;20574;-76
2023/01/09 05:03:33;;;;;;;0.30;0.30;;;8.20;93.10;;;;;;5056579;28;20028;-77
2023/01/09 05:05:59;;;;;;;0.20;0.20;;;8.20;93.10;;;;;;5074106;28;20080;-76
2023/01/09 05:08:24;;;;;;;0.30;0.30;;;8.20;93.10;;;;;;5053494;28;20088;-76
2023/01/09 05:10:50;;;;;;;0.38;0.38;;;8.20;93.10;;;;;;5071282;28;20024;-75
2023/01/09 05:13:15;;;;;;;0.40;0.40;;;8.20;93.10;;;;;;5071814;28;20040;-76
2023/01/09 05:15:41;;;;;;;0.55;0.30;;;8.20;93.10;;;;;;5056689;28;20036;-75
2023/01/09 05:18:06;;;;;;;0.38;0.35;;;8.20;93.10;;;;;;5073089;28;20114;-76
2023/01/09 05:20:32;;;;;;;0.32;0.22;;;8.20;93.10;;;;;;5071626;28;20039;-76
2023/01/09 05:22:57;;;;;;;0.40;0.30;;;8.20;93.10;;;;;;5075625;28;20036;-76
2023/01/09 05:25:23;;;;;;;0.70;0.70;;;8.20;93.10;;;;;;5057479;27;20028;-76
2023/01/09 05:27:48;;;;;;;0.40;0.40;;;8.20;93.10;;;;;;5057646;28;20120;-74
2023/01/09 05:30:14;;;;;;;0.30;0.30;;;8.20;93.10;;;;;;5060612;28;20046;-75
2023/01/09 05:32:39;;;;;;;1.88;0.50;;;8.10;93.10;;;;;;5062430;28;20067;-76
2023/01/09 05:35:05;;;;;;;1.08;0.40;;;8.10;93.10;;;;;;5070255;28;20048;-76
2023/01/09 05:37:31;;;;;;;0.60;0.35;;;8.10;93.00;;;;;;5055127;28;20066;-76
2023/01/09 05:39:56;;;;;;;1.95;0.30;;;8.10;93.10;;;;;;5070677;28;20518;-76
2023/01/09 05:42:22;;;;;;;0.30;0.30;;;8.10;93.10;;;;;;5074743;28;20027;-76
2023/01/09 05:44:47;;;;;;;1.75;0.40;;;8.10;93.10;;;;;;5068763;28;20031;-76
2023/01/09 05:47:13;;;;;;;0.40;0.30;;;8.10;93.10;;;;;;5060195;28;20061;-75
2023/01/09 05:49:38;;;;;;;1.10;0.85;;;8.10;93.00;;;;;;5044512;28;20054;-75
2023/01/09 05:52:04;;;;;;;0.30;0.30;;;8.10;93.00;;;;;;5070386;28;20036;-76
2023/01/09 05:54:29;;;;;;;1.23;0.17;;;8.10;93.00;;;;;;5072877;28;20051;-77
2023/01/09 05:56:55;;;;;;;0.57;0.20;;;8.10;93.00;;;;;;5057713;28;20032;-76
2023/01/09 05:59:21;;;;;;;0.20;0.20;;;8.10;92.90;;;;;;5078028;27;20040;-75
2023/01/09 06:01:46;;;;;;;0.35;0.30;;;8.10;92.90;;;;;;5057232;28;20517;-76
2023/01/09 06:04:12;;;;;;;0.52;0.20;;;8.00;92.90;;;;;;5093844;28;20028;-76
2023/01/09 06:06:38;;;;;;;0.20;0.20;;;8.00;92.80;;;;;;5060232;27;20063;-75
2023/01/09 06:09:04;;;;;;;1.17;0.20;;;8.00;92.80;;;;;;5058100;28;20032;-77
2023/01/09 06:11:30;;;;;;;2.28;0.25;;;8.00;92.80;;;;;;5074691;28;20043;-76
2023/01/09 06:13:55;;;;;;;0.52;0.30;;;7.90;92.70;;;;;;5054312;28;20680;-77
2023/01/09 06:16:21;;;;;;;0.20;0.20;;;7.90;92.70;;;;;;5091349;28;20055;-77
2023/01/09 06:18:46;;;;;;;0.40;0.20;;;7.90;92.70;;;;;;5070391;28;20039;-75
2023/01/09 06:21:12;;;;;;;0.20;0.20;;;7.90;92.70;;;;;;5090764;28;20077;-77
2023/01/09 06:23:37;;;;;;;0.10;0.10;;;7.80;93.00;;;;;;5090362;27;20042;-76
2023/01/09 06:26:03;;;;;;;1.77;0.13;;;7.80;92.60;;;;;;5056963;28;20469;-76
2023/01/09 06:28:28;;;;;;;0.32;0.30;;;7.80;92.60;;;;;;5057237;28;20465;-76
2023/01/09 06:30:54;;;;;;;0.93;0.20;;;7.80;92.60;;;;;;5074849;28;20032;-75
2023/01/09 06:33:20;;;;;;;0.70;0.20;;;7.70;92.50;;;;;;5076330;28;20165;-76
2023/01/09 06:35:45;;;;;;;0.50;0.40;;;7.70;92.50;;;;;;5070893;28;20885;-76
2023/01/09 06:38:11;;;;;;;0.55;0.40;;;7.60;92.50;;;;;;5075444;28;20051;-75
2023/01/09 06:40:37;;;;;;;0.40;0.20;;;7.60;92.50;;;;;;5071951;28;20039;-76
2023/01/09 06:43:02;;;;;;;0.30;0.17;;;7.60;92.40;;;;;;5058868;28;20119;-76
2023/01/09 06:45:28;;;;;;;0.38;0.20;;;7.60;92.50;;;;;;5041197;28;20115;-76
2023/01/09 06:47:53;;;;;;;1.75;0.20;;;7.50;92.40;;;;;;5052647;28;20023;-76
2023/01/09 06:50:19;;;;;;;0.50;0.30;;;7.50;92.40;;;;;;5071127;28;20515;-75
2023/01/09 06:52:44;;;;;;;0.50;0.30;;;7.50;92.40;;;;;;5065517;28;20127;-76
2023/01/09 06:55:10;;;;;;;2.58;0.20;;;7.40;92.30;;;;;;5052176;28;20144;-76
2023/01/09 06:57:36;;;;;;;1.00;0.40;;;7.40;92.40;;;;;;5069822;28;20539;-77
2023/01/09 07:00:01;;;;;;;0.20;0.20;;;7.40;92.30;;;;;;5055217;27;20035;-77
2023/01/09 07:02:27;;;;;;;1.20;0.20;;;7.30;92.30;;;;;;5054035;28;20035;-76
2023/01/09 07:04:52;;;;;;;0.60;0.38;;;7.20;92.30;;;;;;5056382;28;20028;-75
2023/01/09 07:07:19;;;;;;;0.65;0.40;;;7.20;92.30;;;;;;5063764;27;20035;-75
2023/01/09 07:09:44;;;;;;;0.45;0.38;;;7.20;92.30;;;;;;5072593;28;20032;-76
2023/01/09 07:12:10;;;;;;;0.32;0.30;;;7.20;92.30;;;;;;5056075;28;20047;-76
2023/01/09 07:14:35;;;;;;;0.60;0.30;;;7.10;92.20;;;;;;5068723;28;20108;-76
2023/01/09 07:17:02;;;;;;;0.90;0.30;;;7.00;92.20;;;;;;5074042;28;20039;-77
2023/01/09 07:19:27;;;;;;;0.85;0.70;;;7.00;92.20;;;;;;5041232;28;20036;-76
2023/01/09 07:21:53;;;;;;;0.60;0.43;;;6.90;92.50;;;;;;5069190;27;20067;-77
2023/01/09 07:24:18;;;;;;;0.30;0.30;;;6.90;92.20;;;;;;5071471;28;20143;-76
2023/01/09 07:26:44;;;;;;;4.72;0.60;;;6.80;92.10;;;;;;5066608;28;20737;-75
2023/01/09 07:29:09;;;;;;;0.30;0.30;;;6.80;92.20;;;;;;5071618;28;20031;-76
2023/01/09 07:31:35;;;;;;;0.65;0.40;;;6.80;92.20;;;;;;5044802;28;20035;-75
2023/01/09 07:34:00;;;;;;;0.65;0.32;;;6.70;92.20;;;;;;5052695;28;20028;-76
2023/01/09 07:36:26;;;;;;;0.80;0.40;;;6.70;92.20;;;;;;5070742;28;20038;-77
2023/01/09 07:38:51;;;;;;;0.20;0.20;;;6.70;92.30;;;;;;5071428;28;20034;-76
2023/01/09 07:41:17;;;;;;;1.50;0.50;;;6.70;92.30;;;;;;5069576;28;20059;-76
2023/01/09 07:43:42;;;;;;;0.70;0.50;;;6.70;92.30;;;;;;5052220;28;20042;-76
2023/01/09 07:46:08;;;;;;;1.38;0.50;;;6.70;92.30;;;;;;5067843;28;20042;-76
2023/01/09 07:48:33;;;;;;;1.13;0.40;;;6.70;92.30;;;;;;5069803;28;20047;-76
2023/01/09 07:50:59;;;;;;;1.33;0.40;;;6.70;92.30;;;;;;5069045;28;20039;-76
2023/01/09 07:53:24;;;;;;;1.02;0.38;;;6.70;92.30;;;;;;5073892;28;20108;-75
2023/01/09 07:55:50;;;;;;;1.65;0.43;;;6.70;92.30;;;;;;5035737;28;20566;-75
2023/01/09 07:58:15;;;;;;;0.65;0.57;;;6.70;92.30;;;;;;5084280;28;20533;-75
2023/01/09 08:00:41;;;;;;;0.60;0.47;;;6.70;92.30;;;;;;5056537;28;20042;-76
2023/01/09 08:03:06;;;;;;;1.52;0.52;;;6.70;92.40;;;;;;5059217;27;20120;-76
2023/01/09 08:05:32;;;;;;;1.95;0.70;;;6.70;92.40;;;;;;5054923;28;20116;-76
2023/01/09 08:07:57;;;;;;;1.30;0.60;;;6.70;92.40;;;;;;5055566;28;20126;-75
2023/01/09 08:10:23;;;;;;;3.88;1.38;;;6.70;92.40;;;;;;5071174;28;20047;-76
2023/01/09 08:12:49;;;;;;;1.52;0.80;;;6.70;92.40;;;;;;5052645;28;20043;-75
2023/01/09 08:15:14;;;;;;;0.60;0.50;;;6.70;92.40;;;;;;5058639;28;20051;-75
2023/01/09 08:17:41;;;;;;;0.52;0.52;;;6.70;92.40;;;;;;5070273;28;20051;-76
2023/01/09 08:20:09;;;;;;;3.42;0.63;;;6.70;92.40;;;;;;5041001;28;20035;-77
2023/01/09 08:22:35;;;;;;;0.75;0.50;;;6.70;92.40;;;;;;5047637;28;20043;-76
2023/01/09 08:25:00;;;;;;;1.98;0.60;;;6.70;92.40;;;;;;5057987;28;20035;-76
2023/01/09 08:27:26;;;;;;;1.00;0.88;;;6.80;92.40;;;;;;5075208;28;20039;-76
2023/01/09 08:29:51;;;;;;;4.55;1.10;;;6.70;92.40;;;;;;5052110;28;20035;-76
2023/01/09 08:32:17;;;;;;;0.68;0.60;;;6.80;92.40;;;;;;5051974;28;20036;-76
2023/01/09 08:34:42;;;;;;;1.30;0.93;;;6.80;92.40;;;;;;5052276;28;20040;-76
2023/01/09 08:37:08;;;;;;;1.60;0.60;;;6.80;92.40;;;;;;5071171;28;20044;-75
2023/01/09 08:39:34;;;;;;;2.13;0.80;;;6.80;92.50;;;;;;5049975;28;20051;-76
2023/01/09 08:47:32;;;;;;;2.33;0.85;;;7.00;92.50;;;;;;5067823;28;20748;-75
2023/01/09 08:49:57;;;;;;;2.22;0.82;;;7.00;92.50;;;;;;5087626;28;20043;-76
2023/01/09 08:52:23;;;;;;;1.50;1.30;;;7.10;92.50;;;;;;5060108;28;20040;-74
2023/01/09 08:54:48;;;;;;;2.65;1.25;;;7.10;92.50;;;;;;5074702;28;20410;-75
2023/01/09 08:57:14;;;;;;;2.55;0.85;;;7.10;92.50;;;;;;5060753;27;20040;-76
2023/01/09 08:59:39;;;;;;;4.75;0.90;;;7.20;92.50;;;;;;5058731;28;20067;-76
2023/01/09 09:02:05;;;;;;;1.67;0.93;;;7.20;92.40;;;;;;5046521;28;20063;-75
2023/01/09 09:04:31;;;;;;;1.00;0.77;;;7.20;92.40;;;;;;5058444;28;20070;-77
2023/01/09 09:06:56;;;;;;;4.35;0.90;;;7.20;92.40;;;;;;5052376;28;20039;-76
2023/01/09 09:09:24;;;;;;;3.25;0.80;;;7.30;92.30;;;;;;5047455;27;20471;-76
2023/01/09 09:11:49;;;;;;;2.75;0.93;;;7.30;92.30;;;;;;5086636;28;20088;-75
2023/01/09 09:16:59;;;;;;;2.63;0.90;;;7.30;92.30;;;;;;5070389;28;20034;-74
2023/01/09 09:19:24;;;;;;;5.10;1.30;;;7.30;92.30;;;;;;5078534;28;20032;-75
2023/01/09 09:21:50;;;;;;;3.90;1.10;;;7.30;92.30;;;;;;5086243;27;20529;-75
2023/01/09 09:24:15;;;;;;;1.48;0.73;;;7.30;92.20;;;;;;5074274;28;20466;-76
2023/01/09 09:26:41;;;;;;;5.93;0.80;;;7.40;92.30;;;;;;5090341;28;20719;-75
2023/01/09 09:29:06;;;;;;;6.45;0.70;;;7.30;92.20;;;;;;5073422;28;20737;-76
2023/01/09 09:31:32;;;;;;;1.75;0.50;;;7.30;92.20;;;;;;5086206;27;20040;-75
2023/01/09 09:33:58;;;;;;;3.72;1.02;;;7.40;92.20;;;;;;5093598;27;20042;-76
2023/01/09 09:36:23;;;;;;;2.88;0.60;;;7.40;92.20;;;;;;5070150;28;20255;-76
2023/01/09 09:38:49;;;;;;;3.20;0.63;;;7.40;92.20;;;;;;5089990;28;20059;-76
2023/01/09 09:44:45;;;;;;;1.02;0.50;;;7.40;92.20;;;;;;5078041;28;20047;-75
2023/01/09 09:47:42;;;;;;;1.33;0.60;;;7.50;92.20;;;;;;5089675;28;20028;-74
2023/01/09 09:50:35;;;;;;;1.40;0.47;;;7.50;92.20;;;;;;5075743;28;20123;-76
2023/01/09 09:53:13;;;;;;;1.25;0.60;;;7.50;92.10;;;;;;5077809;28;20078;-76
2023/01/09 09:55:39;;;;;;;2.17;0.68;;;7.50;92.10;;;;;;5053936;28;20537;-76
2023/01/09 09:58:24;;;;;;;1.20;0.77;;;7.60;92.10;;;;;;5054630;28;20143;-76
2023/01/09 10:00:50;;;;;;;0.95;0.50;;;7.60;92.10;;;;;;5076394;27;20058;-75
2023/01/09 10:03:44;;;;;;;3.33;1.00;;;7.60;92.10;;;;;;5055901;28;20085;-77
2023/01/09 10:06:27;;;;;;;1.17;0.60;;;7.60;92.10;;;;;;5028110;27;20042;-76
2023/01/09 10:09:26;;;;;;;2.55;0.65;;;7.70;92.10;;;;;;5057933;28;20040;-77
2023/01/09 10:11:59;;;;;;;3.03;0.50;;;7.70;92.10;;;;;;5073721;28;20039;-76
2023/01/09 10:14:24;;;;;;;2.80;0.75;;;7.70;92.10;;;;;;5084461;28;21920;-76
2023/01/09 10:16:56;;;;;;;5.43;1.52;;;7.70;92.00;;;;;;5069788;28;20105;-77
2023/01/09 10:19:36;;;;;;;;;;;7.80;92.10;;;;;;5074675;28;20039;-76
2023/01/09 10:22:23;;;;;;;2.13;0.60;;;7.80;92.00;;;;;;5067821;28;19943;-76
2023/01/09 10:25:11;;;;;;;2.95;0.60;;;7.80;92.00;;;;;;5055632;28;20848;-76
2023/01/09 10:28:07;;;;;;;0.88;0.50;;;7.80;92.00;;;;;;5072393;28;20046;-77
2023/01/09 10:30:48;;;;;;;2.85;1.00;;;7.80;92.00;;;;;;5093364;28;20039;-76
2023/01/09 10:33:34;;;;;;;1.60;0.93;;;7.80;91.90;;;;;;5070444;28;20044;-75
2023/01/09 10:36:26;;;;;;;2.00;0.95;;;7.90;91.90;;;;;;5075558;28;20772;-77
2023/01/09 10:38:52;;;;;;;2.42;0.60;;;7.90;92.00;;;;;;5059458;28;20039;-76
2023/01/09 10:41:22;;;;;;;1.85;0.95;;;7.90;91.90;;;;;;5064493;28;20036;-74
2023/01/09 10:44:11;;;;;;;3.83;1.33;;;8.00;92.00;;;;;;5053719;28;20119;-77
2023/01/09 10:46:40;;;;;;;2.88;1.30;;;8.10;91.90;;;;;;5066831;28;20032;-76
2023/01/09 10:49:10;;;;;;;2.70;0.82;;;8.10;91.90;;;;;;5059685;28;20089;-77
2023/01/09 10:51:57;;;;;;;2.47;0.93;;;8.20;91.90;;;;;;5046448;28;20047;-74
2023/01/09 10:54:23;;;;;;;2.13;0.77;;;8.20;91.70;;;;;;5068707;28;20040;-76
2023/01/09 10:56:55;;;;;;;3.03;0.60;;;8.30;91.80;;;;;;5069638;27;20036;-76
2023/01/09 10:59:23;;;;;;;2.10;0.93;;;8.30;91.60;;;;;;5064224;28;20664;-75
2023/01/09 11:01:49;;;;;;;0.32;0.32;;;8.30;91.60;;;;;;5056523;28;20034;-75
2023/01/09 11:04:25;;;;;;;1.73;0.73;;;8.30;91.50;;;;;;5067770;27;20031;-74
2023/01/09 11:06:58;;;;;;;1.67;0.40;;;8.30;91.50;;;;;;5060271;28;20042;-76
2023/01/09 11:09:23;;;;;;;2.45;0.40;;;8.30;91.50;;;;;;5049588;28;20035;-77
2023/01/09 11:11:49;;;;;;;2.85;0.55;;;8.40;91.50;;;;;;5030579;28;20051;-77
2023/01/09 11:14:17;;;;;;;2.83;0.40;;;8.40;91.40;;;;;;5085114;28;20737;-75
2023/01/09 11:17:11;;;;;;;3.40;0.73;;;8.40;91.40;;;;;;5055127;28;20039;-76
2023/01/09 11:19:36;;;;;;;1.42;0.50;;;8.40;91.20;;;;;;5044341;28;20418;-75
2023/01/09 11:22:14;;;;;;;0.88;0.30;;;8.40;91.30;;;;;;5081022;28;20038;-76
2023/01/09 11:24:40;;;;;;;2.78;0.43;;;8.40;91.20;;;;;;5051611;28;20043;-76
2023/01/09 11:27:11;;;;;;;1.23;0.40;;;8.40;91.20;;;;;;5035676;28;20117;-77
2023/01/09 11:29:37;;;;;;;;;;;8.50;91.20;;;;;;5073231;28;20131;-77
2023/01/09 11:32:03;;;;;;;1.02;0.35;;;8.40;91.20;;;;;;5066906;28;20301;-75
2023/01/09 11:34:32;;;;;;;1.95;0.55;;;8.50;91.20;;;;;;5068454;28;20036;-77
2023/01/09 11:37:05;;;;;;;1.55;0.50;;;8.50;91.50;;;;;;5035217;28;20044;-76
2023/01/09 11:39:31;;;;;;;1.75;0.40;;;8.50;91.10;;;;;;5064104;28;20530;-76
2023/01/09 11:42:02;;;;;;;2.55;0.60;;;8.50;91.10;;;;;;5053320;28;20039;-76
2023/01/09 11:44:27;;;;;;;3.03;0.73;;;8.60;91.00;;;;;;5061654;28;20530;-76
2023/01/09 11:46:53;;;;;;;1.60;0.50;;;8.60;90.90;;;;;;5063167;28;20271;-76
2023/01/09 11:49:21;;;;;;;1.63;0.35;;;8.60;90.80;;;;;;5062729;28;20051;-76
2023/01/09 11:52:03;;;;;;;1.45;0.57;;;8.60;90.80;;;;;;5080652;28;20045;-75
2023/01/09 11:54:33;;;;;;;2.78;0.40;;;8.60;90.70;;;;;;5051480;28;20056;-76
2023/01/09 11:56:58;;;;;;;1.58;0.40;;;8.60;90.70;;;;;;5061731;28;20040;-76
2023/01/09 11:59:25;;;;;;;0.40;0.30;;;8.60;90.60;;;;;;5062097;28;20052;-76
2023/01/09 12:01:54;;;;;;;1.70;0.52;;;8.60;90.60;;;;;;5080546;28;20129;-77
2023/01/09 12:04:27;;;;;;;1.45;0.43;;;8.60;90.60;;;;;;5079308;28;20123;-76
2023/01/09 12:07:14;;;;;;;1.85;0.50;;;8.60;90.50;;;;;;5067709;28;20025;-77
2023/01/09 12:10:04;;;;;;;0.77;0.32;;;8.70;90.40;;;;;;5070156;28;20043;-76
2023/01/09 12:12:51;;;;;;;1.77;0.82;;;8.70;90.40;;;;;;5069290;28;20495;-76
2023/01/09 12:15:28;;;;;;;2.10;0.50;;;8.70;90.30;;;;;;5065765;28;20040;-76
2023/01/09 12:18:01;;;;;;;1.60;0.63;;;8.80;90.50;;;;;;5079612;28;20060;-77
2023/01/09 12:20:30;;;;;;;1.13;0.35;;;8.80;90.50;;;;;;5057955;28;20040;-77
2023/01/09 12:23:22;;;;;;;0.65;0.50;;;9.00;90.50;;;;;;5083494;28;20028;-75
2023/01/09 12:25:50;;;;;;;1.17;0.32;;;9.10;90.40;;;;;;5068070;28;20044;-77
2023/01/09 12:28:46;;;;;;;1.50;0.60;;;9.30;90.30;;;;;;5072984;28;20029;-76
2023/01/09 12:31:35;;;;;;;2.55;0.70;;;9.40;90.20;;;;;;5082636;28;20036;-76
2023/01/09 12:34:23;;;;;;;1.15;0.80;;;9.60;90.10;;;;;;5071703;28;20414;-77
2023/01/09 12:37:19;;;;;;;1.73;0.80;;;9.80;90.10;;;;;;5074859;28;20072;-75
2023/01/09 12:40:15;;;;;;;1.65;0.90;;;9.90;90.10;;;;;;5087895;28;20059;-77
2023/01/09 12:43:02;;;;;;;1.23;0.57;;;10.10;89.70;;;;;;5089777;27;20094;-77
2023/01/09 12:45:41;;;;;;;3.28;1.05;;;10.20;89.60;;;;;;5071172;28;20088;-76
2023/01/09 12:48:25;;;;;;;0.88;0.60;;;10.30;89.30;;;;;;5093084;28;20082;-76
2023/01/09 12:51:06;;;;;;;1.77;0.55;;;10.40;88.70;;;;;;5054632;28;20511;-76
2023/01/09 12:53:34;;;;;;;0.50;0.50;;;10.50;88.90;;;;;;5057465;28;20123;-76
2023/01/09 12:56:25;;;;;;;1.10;0.40;;;10.40;88.30;;;;;;5056800;28;20924;-76
2023/01/09 12:59:05;;;;;;;1.33;0.50;;;10.40;87.70;;;;;;5046725;28;20624;-75
2023/01/09 13:01:38;;;;;;;1.92;0.60;;;10.20;87.60;;;;;;5071576;28;20031;-76
2023/01/09 13:04:23;;;;;;;1.40;0.40;;;10.10;87.40;;;;;;5090775;28;20043;-76
2023/01/09 13:06:58;;;;;;;2.00;0.50;;;10.00;87.10;;;;;;5057568;28;20067;-75
2023/01/09 13:09:48;;;;;;;1.83;0.50;;;9.90;87.40;;;;;;5078171;28;20043;-75
2023/01/09 13:12:20;;;;;;;4.05;0.57;;;9.90;87.50;;;;;;5073328;28;20092;-75
2023/01/09 13:14:55;;;;;;;2.78;0.50;;;9.90;87.70;;;;;;5074650;28;20028;-77
2023/01/09 13:17:32;;;;;;;0.88;0.30;;;9.80;87.50;;;;;;5074639;28;20473;-76
2023/01/09 13:19:57;;;;;;;0.35;0.20;;;9.80;87.20;;;;;;5075981;28;20032;-76
2023/01/09 13:22:24;;;;;;;0.65;0.30;;;9.80;87.50;;;;;;5073444;28;20047;-76
2023/01/09 13:25:05;;;;;;;2.10;0.50;;;9.80;87.40;;;;;;5070421;28;20077;-76
2023/01/09 13:27:33;;;;;;;1.63;0.60;;;9.70;87.10;;;;;;5075756;28;20035;-76